Time;durP1;ratioP1;P1;durP2;ratioP2;P2;SDS_P1;SDS_P2;PMS_P1;PMS_P2;Temp;Humidity;BMP_temperature;BMP_pressure;BME280_temperature;BME280_humidity;BME280_pressure;Samples;Min_cycle;Max_cycle;Signal;HPM_P1;HPM_P2
2022/12/28 00:00:28;;;;;;;5.67;1.80;;;;;;;6.33;100.00;149047.94;5031169;28;20025;-64
2022/12/28 00:02:55;;;;;;;5.60;1.90;;;;;;;6.33;100.00;149047.94;5032918;28;20036;-63
2022/12/28 00:05:21;;;;;;;6.90;2.00;;;;;;;6.33;100.00;149047.94;5026915;28;20042;-63
2022/12/28 00:07:46;;;;;;;10.87;2.67;;;;;;;6.33;100.00;149047.94;5028915;28;20035;-64
2022/12/28 00:10:12;;;;;;;9.63;2.47;;;;;;;6.33;100.00;149047.94;5026857;28;20461;-63
2022/12/28 00:12:37;;;;;;;9.77;2.40;;;;;;;6.33;100.00;149047.94;5032039;28;20025;-64
2022/12/28 00:15:03;;;;;;;6.13;2.00;;;;;;;6.33;100.00;149047.94;5031115;28;20040;-63
2022/12/28 00:17:28;;;;;;;6.83;1.43;;;;;;;6.33;100.00;149047.94;5025902;28;20021;-63
2022/12/28 00:19:53;;;;;;;7.97;2.30;;;;;;;6.33;100.00;149047.94;5026960;28;20500;-63
2022/12/28 00:22:19;;;;;;;9.60;2.20;;;;;;;6.33;100.00;149047.94;5030310;28;20114;-64
2022/12/28 00:24:44;;;;;;;6.87;1.97;;;;;;;6.33;100.00;149047.94;5032256;28;20030;-64
2022/12/28 00:27:09;;;;;;;6.60;2.00;;;;;;;6.33;100.00;149047.94;5026806;28;20025;-63
2022/12/28 00:29:35;;;;;;;5.23;2.17;;;;;;;6.33;100.00;149047.94;5031940;28;20033;-64
2022/12/28 00:32:00;;;;;;;4.90;1.73;;;;;;;6.33;100.00;149047.94;5032398;28;20040;-64
2022/12/28 00:34:25;;;;;;;7.43;2.20;;;;;;;6.33;100.00;149047.94;5030590;28;20358;-63
2022/12/28 00:36:52;;;;;;;5.27;1.80;;;;;;;6.33;100.00;149047.94;5027840;28;20200;-64
2022/12/28 00:39:20;;;;;;;5.30;2.23;;;;;;;6.33;100.00;149047.94;5029400;28;20025;-63
2022/12/28 00:41:46;;;;;;;5.27;1.93;;;;;;;6.33;100.00;149047.94;5032591;28;20033;-64
2022/12/28 00:44:11;;;;;;;8.13;2.00;;;;;;;6.33;100.00;149047.94;5031981;28;20371;-65
2022/12/28 00:46:37;;;;;;;8.10;2.20;;;;;;;6.33;100.00;149047.94;5031400;28;20053;-64
2022/12/28 00:49:02;;;;;;;10.73;2.30;;;;;;;6.33;100.00;149047.94;5031840;28;20425;-64
2022/12/28 00:51:28;;;;;;;4.57;1.63;;;;;;;6.33;100.00;149047.94;5030791;28;20025;-64
2022/12/28 00:53:53;;;;;;;6.37;2.17;;;;;;;6.33;100.00;149047.94;5027586;28;20025;-64
2022/12/28 00:56:20;;;;;;;8.13;1.93;;;;;;;6.33;100.00;149047.94;5030598;28;20036;-64
2022/12/28 00:58:46;;;;;;;4.47;1.80;;;;;;;6.33;100.00;149047.94;5028639;28;20041;-64
2022/12/28 01:01:19;;;;;;;10.77;2.33;;;;;;;6.33;100.00;149047.94;5028990;28;20048;-64
2022/12/28 01:03:45;;;;;;;5.33;1.40;;;;;;;6.33;100.00;149047.94;5030098;28;20051;-64
2022/12/28 01:06:13;;;;;;;8.43;1.87;;;;;;;6.33;100.00;149047.94;5028721;28;20060;-64
2022/12/28 01:08:39;;;;;;;10.20;2.47;;;;;;;6.33;100.00;149047.94;5030428;28;20025;-64
2022/12/28 01:11:14;;;;;;;6.97;2.27;;;;;;;6.33;100.00;149047.94;5027691;28;20022;-64
2022/12/28 01:13:40;;;;;;;9.83;2.63;;;;;;;6.33;100.00;149047.94;5027137;28;20030;-64
2022/12/28 01:16:10;;;;;;;6.43;2.10;;;;;;;6.33;100.00;149047.94;5030898;28;20377;-64
2022/12/28 01:18:36;;;;;;;7.47;2.30;;;;;;;6.33;100.00;149047.94;5026833;28;20388;-64
2022/12/28 01:21:07;;;;;;;7.10;2.20;;;;;;;6.33;100.00;149047.94;5028357;28;20029;-64
2022/12/28 01:23:33;;;;;;;;;;;;;;;6.33;100.00;149047.94;5030557;28;20021;-64
2022/12/28 01:26:01;;;;;;;6.27;1.80;;;;;;;6.33;100.00;149047.94;5027443;28;20006;-64
2022/12/28 01:28:28;;;;;;;6.73;2.27;;;;;;;6.33;100.00;149047.94;5028290;28;20392;-64
2022/12/28 01:30:53;;;;;;;5.93;1.87;;;;;;;6.33;100.00;149047.94;5029175;28;20079;-65
2022/12/28 01:33:18;;;;;;;7.03;2.07;;;;;;;6.33;100.00;149047.94;5029175;28;20481;-64
2022/12/28 01:35:44;;;;;;;10.47;2.20;;;;;;;6.33;100.00;149047.94;5029506;28;20037;-64
2022/12/28 01:38:09;;;;;;;6.73;2.00;;;;;;;6.33;100.00;149047.94;5029883;28;20031;-64
2022/12/28 01:40:35;;;;;;;6.60;2.20;;;;;;;6.33;100.00;149047.94;5029313;28;20060;-64
2022/12/28 01:43:00;;;;;;;7.23;1.90;;;;;;;6.33;100.00;149047.94;5030305;28;20432;-63
2022/12/28 01:45:26;;;;;;;6.63;1.87;;;;;;;6.33;100.00;149047.94;5028877;28;20112;-64
2022/12/28 01:47:54;;;;;;;7.47;1.90;;;;;;;6.33;100.00;149047.94;5030192;28;20032;-64
2022/12/28 01:50:26;;;;;;;5.37;1.93;;;;;;;6.33;100.00;149047.94;5028038;28;20033;-64
2022/12/28 01:52:54;;;;;;;;;;;;;;;6.33;100.00;149047.94;5029466;28;20742;-64
2022/12/28 01:55:24;;;;;;;4.73;2.00;;;;;;;6.33;100.00;149047.94;5028652;28;19917;-64
2022/12/28 01:57:52;;;;;;;6.90;2.03;;;;;;;6.33;100.00;149047.94;5029093;28;20094;-64
2022/12/28 02:00:17;;;;;;;8.27;2.17;;;;;;;6.33;100.00;149047.94;5028978;28;20375;-63
2022/12/28 02:03:04;;;;;;;10.33;2.20;;;;;;;6.33;100.00;149047.94;5047888;22;20672;-69
2022/12/28 02:05:37;;;;;;;6.67;2.07;;;;;;;6.33;100.00;149047.94;5042933;28;20026;-69
2022/12/28 02:08:37;;;;;;;7.27;2.20;;;;;;;6.33;100.00;149047.94;5047330;28;20028;-69
2022/12/28 02:11:05;;;;;;;4.57;2.00;;;;;;;6.33;100.00;149047.94;5045054;28;20035;-68
2022/12/28 02:13:30;;;;;;;4.83;1.90;;;;;;;6.33;100.00;149047.94;5041624;28;20033;-69
2022/12/28 02:15:56;;;;;;;7.63;2.73;;;;;;;6.33;100.00;149047.94;5039374;28;20388;-69
2022/12/28 02:18:24;;;;;;;6.30;1.93;;;;;;;6.33;100.00;149047.94;5038464;28;20029;-69
2022/12/28 02:21:08;;;;;;;7.50;2.43;;;;;;;6.33;100.00;149047.94;5040712;28;20100;-69
2022/12/28 02:24:31;;;;;;;5.83;2.30;;;;;;;6.33;100.00;149047.94;5045562;28;20025;-69
2022/12/28 02:27:34;;;;;;;7.27;2.60;;;;;;;6.33;100.00;149047.94;4967854;28;20034;-69
2022/12/28 02:29:59;;;;;;;5.33;2.10;;;;;;;6.33;100.00;149047.94;4966786;28;20034;-69
2022/12/28 02:32:48;;;;;;;7.17;2.70;;;;;;;6.33;100.00;149047.94;4966841;28;20190;-69
2022/12/28 02:35:37;;;;;;;6.37;2.90;;;;;;;6.33;100.00;149047.94;4966462;28;20514;-71
2022/12/28 02:38:47;;;;;;;8.17;2.90;;;;;;;6.33;100.00;149047.94;4968566;28;20418;-69
2022/12/28 02:41:19;;;;;;;7.80;2.67;;;;;;;6.33;100.00;149047.94;4965715;28;20552;-69
2022/12/28 02:43:45;;;;;;;9.30;2.40;;;;;;;6.33;100.00;149047.94;4969706;28;20129;-69
2022/12/28 02:52:07;;;;;;;8.83;2.90;;;;;;;6.33;100.00;149047.94;4969640;28;20085;-68
2022/12/28 02:58:07;;;;;;;7.87;2.90;;;;;;;6.33;100.00;149047.94;4996815;28;20079;-68
2022/12/28 03:00:58;;;;;;;7.53;2.37;;;;;;;6.33;100.00;149047.94;5038059;28;20025;-68
2022/12/28 03:03:38;;;;;;;7.30;3.05;;;;;;;6.33;100.00;149047.94;5039985;28;20476;-68
2022/12/28 03:09:18;;;;;;;8.98;3.05;;;;;;;6.33;100.00;149047.94;5044323;28;20066;-68
2022/12/28 03:12:05;;;;;;;9.20;2.67;;;;;;;6.33;100.00;149047.94;5040906;28;20543;-68
2022/12/28 03:14:45;;;;;;;8.00;2.17;;;;;;;6.33;100.00;149047.94;5033419;28;20166;-68
2022/12/28 03:31:16;;;;;;;9.27;3.03;;;;;;;6.33;100.00;149047.94;5042055;28;20106;-68
2022/12/28 03:33:45;;;;;;;6.25;2.45;;;;;;;6.33;100.00;149047.94;5040184;28;20036;-69
2022/12/28 03:36:27;;;;;;;6.53;2.33;;;;;;;6.33;100.00;149047.94;5042864;28;20044;-68
2022/12/28 03:39:08;;;;;;;7.95;2.40;;;;;;;6.33;100.00;149047.94;5050136;28;20532;-69
2022/12/28 03:41:38;;;;;;;6.45;2.47;;;;;;;6.33;100.00;149047.94;5051138;28;20478;-69
2022/12/28 03:44:10;;;;;;;8.40;2.97;;;;;;;6.33;100.00;149047.94;5045578;28;20033;-68
2022/12/28 03:46:47;;;;;;;7.50;2.67;;;;;;;6.33;100.00;149047.94;5045502;28;20033;-68
2022/12/28 03:49:13;;;;;;;8.97;2.80;;;;;;;6.33;100.00;149047.94;5040350;28;20570;-69
2022/12/28 03:51:40;;;;;;;7.60;2.80;;;;;;;6.33;100.00;149047.94;5046936;28;20058;-68
2022/12/28 03:54:06;;;;;;;7.43;2.60;;;;;;;6.33;100.00;149047.94;5043688;28;20033;-70
2022/12/28 03:56:31;;;;;;;9.60;2.60;;;;;;;6.33;100.00;149047.94;5038295;28;20043;-69
2022/12/28 03:58:56;;;;;;;8.27;3.30;;;;;;;6.33;100.00;149047.94;5040928;28;20548;-69
2022/12/28 04:01:22;;;;;;;9.87;3.17;;;;;;;6.33;100.00;149047.94;5036222;28;20021;-70
2022/12/28 04:03:48;;;;;;;7.57;3.70;;;;;;;6.33;100.00;149047.94;5040405;28;20476;-69
2022/12/28 04:06:15;;;;;;;12.30;3.33;;;;;;;6.33;100.00;149047.94;5044768;28;20026;-70
2022/12/28 04:08:42;;;;;;;8.07;3.93;;;;;;;6.33;100.00;149047.94;5043201;28;20039;-70
2022/12/28 04:11:08;;;;;;;9.33;4.10;;;;;;;6.33;100.00;149047.94;5042948;28;21364;-70
2022/12/28 04:13:33;;;;;;;6.80;3.10;;;;;;;6.33;100.00;149047.94;5038661;28;20143;-70
2022/12/28 04:16:03;;;;;;;10.47;4.50;;;;;;;6.33;100.00;149047.94;5047429;28;20037;-71
2022/12/28 04:18:32;;;;;;;9.97;3.33;;;;;;;6.33;100.00;149047.94;5042704;28;20116;-69
2022/12/28 04:20:58;;;;;;;8.83;4.13;;;;;;;6.33;100.00;149047.94;5039730;28;20072;-68
2022/12/28 04:23:24;;;;;;;10.90;4.17;;;;;;;6.33;100.00;149047.94;5041481;28;20123;-68
2022/12/28 04:26:07;;;;;;;6.63;2.67;;;;;;;6.33;100.00;149047.94;5043507;28;20056;-68
2022/12/28 04:28:33;;;;;;;10.40;4.17;;;;;;;6.33;100.00;149047.94;5037304;28;20029;-68
2022/12/28 04:31:00;;;;;;;7.27;2.83;;;;;;;6.33;100.00;149047.94;5040253;28;20052;-68
2022/12/28 04:33:26;;;;;;;9.90;4.03;;;;;;;6.33;100.00;149047.94;5039229;28;20159;-69
2022/12/28 04:35:55;;;;;;;8.63;3.70;;;;;;;6.33;100.00;149047.94;5041590;28;20132;-69
2022/12/28 04:38:20;;;;;;;7.77;3.23;;;;;;;6.33;100.00;149047.94;5042648;28;20056;-69
2022/12/28 04:40:46;;;;;;;7.03;3.60;;;;;;;6.33;100.00;149047.94;5039358;28;20068;-70
2022/12/28 04:43:15;;;;;;;10.43;3.97;;;;;;;6.33;100.00;149047.94;5034614;28;20029;-69
2022/12/28 04:45:40;;;;;;;8.33;3.90;;;;;;;6.33;100.00;149047.94;5044378;28;20057;-70
2022/12/28 04:48:06;;;;;;;9.43;4.47;;;;;;;6.33;100.00;149047.94;5045331;28;20059;-69
2022/12/28 04:50:31;;;;;;;13.37;6.10;;;;;;;6.33;100.00;149047.94;5042669;28;20025;-69
2022/12/28 04:52:59;;;;;;;95.07;6.40;;;;;;;6.33;100.00;149047.94;5041255;28;20456;-69
2022/12/28 04:55:28;;;;;;;8.83;3.97;;;;;;;6.33;100.00;149047.94;5040842;28;20033;-70
2022/12/28 04:57:53;;;;;;;13.27;6.07;;;;;;;6.33;100.00;149047.94;5038658;28;20037;-70
2022/12/28 05:00:18;;;;;;;12.67;6.97;;;;;;;6.33;100.00;149047.94;5045994;28;20029;-68
2022/12/28 05:02:44;;;;;;;10.03;5.93;;;;;;;6.33;100.00;149047.94;5036431;28;20037;-68
2022/12/28 05:05:09;;;;;;;14.33;7.33;;;;;;;6.33;100.00;149047.94;5043005;28;20021;-68
2022/12/28 05:07:34;;;;;;;11.10;6.00;;;;;;;6.33;100.00;149047.94;5040130;28;20033;-68
2022/12/28 05:10:00;;;;;;;10.10;5.93;;;;;;;6.33;100.00;149047.94;5041710;28;20071;-71
2022/12/28 05:12:25;;;;;;;10.57;5.97;;;;;;;6.33;100.00;149047.94;5037190;28;20469;-69
2022/12/28 05:14:52;;;;;;;9.30;4.87;;;;;;;6.33;100.00;149047.94;5036286;28;20515;-69
2022/12/28 05:17:17;;;;;;;82.27;6.87;;;;;;;6.33;100.00;149047.94;5041191;28;20404;-69
2022/12/28 05:19:43;;;;;;;10.10;5.67;;;;;;;6.33;100.00;149047.94;5040859;28;20030;-69
2022/12/28 05:22:10;;;;;;;8.00;4.23;;;;;;;6.33;100.00;149047.94;5038972;28;20040;-67
2022/12/28 05:24:37;;;;;;;13.07;7.23;;;;;;;6.33;100.00;149047.94;5043897;28;20053;-69
2022/12/28 05:27:03;;;;;;;13.87;7.17;;;;;;;6.33;100.00;149047.94;5044608;28;20112;-69
2022/12/28 05:29:28;;;;;;;50.43;5.43;;;;;;;6.33;100.00;149047.94;5035914;28;20144;-68
2022/12/28 05:31:53;;;;;;;10.70;5.13;;;;;;;6.33;100.00;149047.94;5042072;28;20091;-69
2022/12/28 05:34:19;;;;;;;8.67;5.00;;;;;;;6.33;100.00;149047.94;5038817;28;20029;-69
2022/12/28 05:36:44;;;;;;;7.07;4.53;;;;;;;6.33;100.00;149047.94;5038459;28;20044;-70
2022/12/28 05:39:09;;;;;;;9.87;5.77;;;;;;;6.33;100.00;149047.94;5038932;28;20511;-69
2022/12/28 05:41:34;;;;;;;12.07;7.57;;;;;;;6.33;100.00;149047.94;5044360;28;20033;-69
2022/12/28 05:44:00;;;;;;;10.57;6.50;;;;;;;6.33;100.00;149047.94;5033553;28;20025;-69
2022/12/28 05:46:30;;;;;;;11.70;5.90;;;;;;;6.33;100.00;149047.94;5037599;28;20113;-69
2022/12/28 05:48:56;;;;;;;11.10;5.97;;;;;;;6.33;100.00;149047.94;5039554;28;20120;-69
2022/12/28 05:51:24;;;;;;;10.53;6.20;;;;;;;6.33;100.00;149047.94;5048173;28;20380;-69
2022/12/28 05:53:49;;;;;;;10.43;6.40;;;;;;;6.33;100.00;149047.94;5044666;28;20033;-69
2022/12/28 05:56:23;;;;;;;12.20;7.43;;;;;;;6.33;100.00;149047.94;5045651;28;20035;-69
2022/12/28 05:58:54;;;;;;;49.37;4.57;;;;;;;6.33;100.00;149047.94;5045479;28;20033;-69
2022/12/28 06:01:22;;;;;;;8.67;5.93;;;;;;;6.33;100.00;149047.94;5041000;28;20052;-69
2022/12/28 06:03:53;;;;;;;11.90;5.57;;;;;;;6.33;100.00;149047.94;5044554;28;20045;-69
2022/12/28 06:06:19;;;;;;;8.25;5.47;;;;;;;6.33;100.00;149047.94;5038289;28;20021;-68
2022/12/28 06:08:46;;;;;;;10.77;6.00;;;;;;;6.33;100.00;149047.94;5037220;28;20506;-68
2022/12/28 06:11:16;;;;;;;136.70;8.50;;;;;;;6.33;100.00;149047.94;5048240;28;20056;-69
2022/12/28 06:13:42;;;;;;;12.63;7.33;;;;;;;6.33;100.00;149047.94;5034969;28;20083;-69
2022/12/28 06:16:12;;;;;;;12.93;6.20;;;;;;;6.33;100.00;149047.94;5038372;28;20033;-71
2022/12/28 06:18:38;;;;;;;10.27;6.87;;;;;;;6.33;100.00;149047.94;5045605;28;20082;-69
2022/12/28 06:21:06;;;;;;;102.37;5.97;;;;;;;6.33;100.00;149047.94;5042607;28;20025;-69
2022/12/28 06:23:32;;;;;;;8.10;5.17;;;;;;;6.33;100.00;149047.94;5035776;28;20025;-69
2022/12/28 06:26:02;;;;;;;8.40;5.73;;;;;;;6.33;100.00;149047.94;5039176;28;20044;-69
2022/12/28 06:28:28;;;;;;;18.90;5.13;;;;;;;6.33;100.00;149047.94;5040798;28;20112;-68
2022/12/28 06:31:09;;;;;;;557.87;16.90;;;;;;;6.33;100.00;149047.94;5040967;28;20491;-70
2022/12/28 06:33:35;;;;;;;;;;;;;;;6.33;100.00;149047.94;5036724;28;20029;-70
2022/12/28 06:36:01;;;;;;;8.30;6.03;;;;;;;6.33;100.00;149047.94;5047982;28;20356;-70
2022/12/28 06:38:28;;;;;;;9.23;4.53;;;;;;;6.33;100.00;149047.94;5034719;28;20817;-70
2022/12/28 06:40:54;;;;;;;9.80;6.43;;;;;;;6.33;100.00;149047.94;5041308;28;20029;-68
2022/12/28 06:43:19;;;;;;;7.40;4.47;;;;;;;6.33;100.00;149047.94;5038461;28;20044;-66
2022/12/28 06:45:57;;;;;;;8.40;5.30;;;;;;;6.33;100.00;149047.94;5042977;28;20047;-67
2022/12/28 06:48:23;;;;;;;8.53;5.80;;;;;;;6.33;100.00;149047.94;5032584;28;20029;-68
2022/12/28 06:50:55;;;;;;;7.80;5.33;;;;;;;6.33;100.00;149047.94;5041387;28;20033;-68
2022/12/28 06:53:21;;;;;;;25.47;5.57;;;;;;;6.33;100.00;149047.94;5031451;28;20075;-66
2022/12/28 06:55:57;;;;;;;370.13;14.30;;;;;;;6.33;100.00;149047.94;5045629;28;20439;-67
2022/12/28 06:58:23;;;;;;;6.90;4.57;;;;;;;6.33;100.00;149047.94;5039765;28;20033;-68
2022/12/28 07:00:49;;;;;;;107.23;7.53;;;;;;;6.33;100.00;149047.94;5037999;28;20033;-67
2022/12/28 07:03:15;;;;;;;7.90;5.60;;;;;;;6.33;100.00;149047.94;5039368;28;20377;-67
2022/12/28 07:05:40;;;;;;;6.17;4.20;;;;;;;6.33;100.00;149047.94;5037705;28;20533;-68
2022/12/28 07:08:06;;;;;;;9.03;6.13;;;;;;;6.33;100.00;149047.94;5041851;28;20116;-67
2022/12/28 07:10:32;;;;;;;8.83;6.20;;;;;;;6.33;100.00;149047.94;5041038;28;20115;-67
2022/12/28 07:12:58;;;;;;;7.27;5.07;;;;;;;6.33;100.00;149047.94;5041521;28;20075;-67
2022/12/28 07:15:23;;;;;;;8.67;6.07;;;;;;;6.33;100.00;149047.94;5041336;28;20033;-67
2022/12/28 07:17:49;;;;;;;8.60;6.03;;;;;;;6.33;100.00;149047.94;5034407;28;20032;-66
2022/12/28 07:20:14;;;;;;;471.93;16.07;;;;;;;6.33;100.00;149047.94;5040178;28;20056;-67
2022/12/28 07:22:39;;;;;;;8.97;5.30;;;;;;;6.33;100.00;149047.94;5033026;28;20029;-67
2022/12/28 07:25:05;;;;;;;374.77;11.57;;;;;;;6.33;100.00;149047.94;5035904;28;20026;-70
2022/12/28 07:27:31;;;;;;;7.20;5.17;;;;;;;6.33;100.00;149047.94;5033320;28;20533;-68
2022/12/28 07:29:56;;;;;;;7.77;5.50;;;;;;;6.33;100.00;149047.94;5039458;28;20056;-68
2022/12/28 07:32:21;;;;;;;6.73;4.50;;;;;;;6.33;100.00;149047.94;5038173;28;20558;-68
2022/12/28 07:34:47;;;;;;;7.80;5.43;;;;;;;6.33;100.00;149047.94;5034775;28;20021;-67
2022/12/28 07:37:12;;;;;;;8.33;5.47;;;;;;;6.33;100.00;149047.94;5030740;28;20104;-67
2022/12/28 07:39:37;;;;;;;8.27;5.27;;;;;;;6.33;100.00;149047.94;5037741;28;20032;-67
2022/12/28 07:42:05;;;;;;;7.77;5.63;;;;;;;6.33;100.00;149047.94;5032884;28;20617;-67
2022/12/28 07:44:31;;;;;;;5.37;3.67;;;;;;;6.33;100.00;149047.94;5033005;28;20035;-68
2022/12/28 07:46:56;;;;;;;8.00;4.80;;;;;;;6.33;100.00;149047.94;5037605;28;20033;-67
2022/12/28 07:49:22;;;;;;;38.63;5.83;;;;;;;6.33;100.00;149047.94;5036864;28;20024;-67
2022/12/28 07:51:48;;;;;;;8.30;5.13;;;;;;;6.33;100.00;149047.94;5035041;28;20029;-68
2022/12/28 07:54:13;;;;;;;7.63;5.20;;;;;;;6.33;100.00;149047.94;5033928;28;20028;-68
2022/12/28 07:56:39;;;;;;;6.93;4.77;;;;;;;6.33;100.00;149047.94;5031427;28;20022;-67
2022/12/28 07:59:05;;;;;;;7.13;4.67;;;;;;;6.33;100.00;149047.94;5038921;28;20037;-67
2022/12/28 08:01:33;;;;;;;181.33;7.00;;;;;;;6.33;100.00;149047.94;5036608;28;20029;-67
2022/12/28 08:04:01;;;;;;;6.33;3.63;;;;;;;6.33;100.00;149047.94;5043304;28;20469;-66
2022/12/28 08:06:28;;;;;;;7.17;3.80;;;;;;;6.33;100.00;149047.94;5042550;28;20088;-68
2022/12/28 08:08:57;;;;;;;6.83;4.57;;;;;;;6.33;100.00;149047.94;5039562;28;20053;-66
2022/12/28 08:11:25;;;;;;;7.30;5.00;;;;;;;6.33;100.00;149047.94;5038076;28;20037;-67
2022/12/28 08:13:53;;;;;;;50.10;4.90;;;;;;;6.33;100.00;149047.94;5040579;28;20174;-67
2022/12/28 08:16:21;;;;;;;6.20;4.30;;;;;;;6.33;100.00;149047.94;5048236;28;20025;-67
2022/12/28 08:18:47;;;;;;;37.37;4.97;;;;;;;6.33;100.00;149047.94;5044630;28;20021;-67
2022/12/28 08:21:16;;;;;;;5.73;4.00;;;;;;;6.33;100.00;149047.94;5045075;28;20032;-68
2022/12/28 08:23:42;;;;;;;7.17;4.77;;;;;;;6.33;100.00;149047.94;5039083;28;20028;-67
2022/12/28 08:26:09;;;;;;;6.93;4.60;;;;;;;6.33;100.00;149047.94;5046836;28;20029;-67
2022/12/28 08:28:36;;;;;;;5.57;3.63;;;;;;;6.33;100.00;149047.94;5048426;28;20043;-68
2022/12/28 08:31:13;;;;;;;8.07;5.07;;;;;;;6.33;100.00;149047.94;5047783;28;20033;-67
2022/12/28 08:33:39;;;;;;;7.13;4.30;;;;;;;6.33;100.00;149047.94;5043983;28;20112;-67
2022/12/28 08:36:05;;;;;;;7.10;4.73;;;;;;;6.33;100.00;149047.94;5043884;28;20033;-68
2022/12/28 08:38:31;;;;;;;6.33;4.30;;;;;;;6.33;100.00;149047.94;5039479;28;20107;-67
2022/12/28 08:40:58;;;;;;;6.30;4.30;;;;;;;6.33;100.00;149047.94;5037542;28;20488;-68
2022/12/28 08:43:26;;;;;;;7.67;4.73;;;;;;;6.33;100.00;149047.94;5036978;28;20091;-67
2022/12/28 08:46:05;;;;;;;5.83;4.00;;;;;;;6.33;100.00;149047.94;5047550;28;20737;-67
2022/12/28 08:48:32;;;;;;;6.60;4.40;;;;;;;6.33;100.00;149047.94;5045053;28;20021;-67
2022/12/28 08:51:05;;;;;;;6.93;3.53;;;;;;;6.33;100.00;149047.94;5051098;28;20033;-67
2022/12/28 08:53:32;;;;;;;6.83;3.90;;;;;;;6.33;100.00;149047.94;5047706;28;20107;-68
2022/12/28 08:56:13;;;;;;;6.03;3.43;;;;;;;6.33;100.00;149047.94;5051294;28;20676;-67
2022/12/28 08:58:39;;;;;;;6.53;4.10;;;;;;;6.33;100.00;149047.94;5052118;28;20028;-66
2022/12/28 09:01:13;;;;;;;6.10;4.00;;;;;;;6.33;100.00;149047.94;5045873;28;20040;-67
2022/12/28 09:03:41;;;;;;;5.43;3.10;;;;;;;6.33;100.00;149047.94;5050498;28;20618;-67
2022/12/28 09:06:09;;;;;;;5.93;3.80;;;;;;;-145.18;100.00;114074.00;5051107;28;20028;-68
2022/12/28 09:08:35;;;;;;;5.70;3.50;;;;;;;-145.18;100.00;114074.00;5051471;28;20021;-67
2022/12/28 09:11:06;;;;;;;6.63;2.67;;;;;;;-145.18;100.00;114074.00;5054919;28;20025;-67
2022/12/28 09:13:33;;;;;;;6.10;3.00;;;;;;;-145.18;100.00;114074.00;5046403;28;20119;-68
2022/12/28 09:16:06;;;;;;;5.20;3.17;;;;;;;-145.18;100.00;114074.00;5041552;28;20051;-67
2022/12/28 09:18:33;;;;;;;5.53;3.40;;;;;;;-145.18;100.00;114074.00;5037448;28;20061;-67
2022/12/28 09:21:15;;;;;;;5.77;3.20;;;;;;;-145.18;100.00;114074.00;5044734;28;20037;-68
2022/12/28 09:23:42;;;;;;;17.93;2.87;;;;;;;-145.18;100.00;114074.00;5046471;28;20063;-67
2022/12/28 09:26:18;;;;;;;4.77;3.20;;;;;;;-145.18;100.00;149047.94;5047423;28;20070;-68
2022/12/28 09:28:49;;;;;;;4.40;2.87;;;;;;;6.33;100.00;149047.94;5049172;28;20036;-67
2022/12/28 09:31:15;;;;;;;4.83;2.90;;;;;;;6.33;100.00;149047.94;5040880;28;20520;-67
2022/12/28 09:33:59;;;;;;;38.17;2.47;;;;;;;6.33;100.00;149047.94;5038548;28;20036;-68
2022/12/28 09:36:29;;;;;;;4.13;2.63;;;;;;;6.33;100.00;149047.94;5048999;28;20028;-68
2022/12/28 09:38:55;;;;;;;3.60;2.10;;;;;;;-145.18;100.00;149047.94;5045217;28;20033;-68
2022/12/28 09:41:32;;;;;;;4.27;2.43;;;;;;;-145.18;100.00;149047.94;5050404;28;20078;-67
2022/12/28 09:44:03;;;;;;;92.70;4.70;;;;;;;-145.18;100.00;149047.94;5042810;28;20086;-67
2022/12/28 09:46:31;;;;;;;7.22;3.03;;;;;;;-145.18;100.00;114074.00;5044156;28;20044;-68
2022/12/28 09:48:59;;;;;;;7.03;3.23;;;;;;;-145.18;100.00;149047.94;5043795;28;20037;-68
2022/12/28 09:51:34;;;;;;;5.60;3.30;;;;;;;-145.18;100.00;149047.94;5044658;28;20106;-67
2022/12/28 09:53:59;;;;;;;4.43;2.50;;;;;;;-145.18;100.00;114074.00;5049107;28;20067;-68
2022/12/28 09:56:36;;;;;;;7.47;3.47;;;;;;;-145.18;100.00;149047.94;5044558;28;20392;-68
2022/12/28 09:59:05;;;;;;;4.73;2.83;;;;;;;-145.18;100.00;149047.94;5049109;28;20028;-67
2022/12/28 10:01:34;;;;;;;4.00;2.50;;;;;;;-145.18;100.00;149047.94;5035995;28;20021;-68
2022/12/28 10:04:01;;;;;;;7.10;3.30;;;;;;;6.33;100.00;149047.94;5041274;28;22118;-68
2022/12/28 10:06:31;;;;;;;5.03;3.20;;;;;;;-145.18;100.00;149047.94;5044300;28;20499;-68
2022/12/28 10:08:58;;;;;;;5.37;2.97;;;;;;;-145.18;100.00;114074.00;5048352;28;20061;-67
2022/12/28 10:11:28;;;;;;;4.90;2.90;;;;;;;-145.18;100.00;149047.94;5051651;28;20130;-68
2022/12/28 10:13:59;;;;;;;5.33;2.00;;;;;;;-145.18;100.00;114074.00;5051963;28;20033;-68
2022/12/28 10:16:28;;;;;;;5.22;3.28;;;;;;;6.33;100.00;149047.94;5044286;28;20025;-67
2022/12/28 10:18:54;;;;;;;173.23;5.87;;;;;;;6.33;100.00;149047.94;5046022;28;20135;-68
2022/12/28 10:21:22;;;;;;;5.27;2.67;;;;;;;-145.18;100.00;149047.94;5047858;28;20108;-68
2022/12/28 10:23:51;;;;;;;4.27;2.80;;;;;;;6.33;100.00;149047.94;5048229;28;20073;-68
2022/12/28 10:26:19;;;;;;;3.93;2.13;;;;;;;6.33;100.00;149047.94;5049108;28;20025;-68
2022/12/28 10:28:51;;;;;;;4.73;2.80;;;;;;;6.33;100.00;149047.94;5046991;28;20593;-67
2022/12/28 10:31:30;;;;;;;4.60;2.43;;;;;;;6.33;100.00;149047.94;5050248;28;20060;-67
2022/12/28 10:33:56;;;;;;;4.60;2.60;;;;;;;6.33;100.00;149047.94;5049904;28;20132;-67
2022/12/28 10:36:21;;;;;;;5.67;2.73;;;;;;;;;;5051690;28;20099;-67
2022/12/28 10:38:53;;;;;;;4.90;2.70;;;;;;;6.33;100.00;149047.94;5040199;28;20385;-68
2022/12/28 10:41:20;;;;;;;3.97;2.40;;;;;;;6.33;100.00;149047.94;5051163;28;20064;-68
2022/12/28 10:43:50;;;;;;;5.67;2.40;;;;;;;6.33;100.00;149047.94;5050476;28;20499;-68
2022/12/28 10:46:18;;;;;;;4.03;2.17;;;;;;;6.33;100.00;149047.94;5039496;28;20035;-67
2022/12/28 10:48:52;;;;;;;5.17;2.60;;;;;;;6.33;100.00;149047.94;5049157;28;20037;-68
2022/12/28 10:51:20;;;;;;;3.93;2.13;;;;;;;6.33;100.00;149047.94;5048955;28;20094;-67
2022/12/28 10:53:47;;;;;;;3.37;1.50;;;;;;;6.33;100.00;149047.94;5050403;28;20057;-68
2022/12/28 10:56:12;;;;;;;4.77;2.70;;;;;;;6.33;100.00;149047.94;5050490;28;20029;-68
2022/12/28 10:58:43;;;;;;;84.30;4.30;;;;;;;6.33;100.00;149047.94;5049674;28;20035;-69
2022/12/28 11:01:11;;;;;;;4.30;2.50;;;;;;;6.33;100.00;149047.94;5046296;28;20084;-68
2022/12/28 11:03:39;;;;;;;4.40;2.60;;;;;;;6.33;100.00;149047.94;5050196;28;20044;-68
2022/12/28 11:06:14;;;;;;;3.67;1.87;;;;;;;6.33;100.00;149047.94;5039861;28;20396;-69
2022/12/28 11:08:41;;;;;;;4.23;1.90;;;;;;;6.33;100.00;149047.94;5032796;28;20029;-70
2022/12/28 11:11:16;;;;;;;313.53;8.40;;;;;;;6.33;100.00;149047.94;5042610;28;20047;-67
2022/12/28 11:13:47;;;;;;;4.80;2.00;;;;;;;6.33;100.00;149047.94;5045254;28;20516;-68
2022/12/28 11:16:13;;;;;;;4.15;1.95;;;;;;;6.33;100.00;149047.94;5045299;28;20752;-68
2022/12/28 11:18:40;;;;;;;3.53;1.90;;;;;;;6.33;100.00;149047.94;5039309;28;20444;-68
2022/12/28 11:21:10;;;;;;;3.67;2.00;;;;;;;6.33;100.00;149047.94;5044666;28;20029;-69
2022/12/28 11:23:37;;;;;;;87.40;3.20;;;;;;;6.33;100.00;149047.94;5045713;28;20064;-69
2022/12/28 11:26:03;;;;;;;3.20;1.90;;;;;;;6.33;100.00;149047.94;5042376;28;20492;-68
2022/12/28 11:28:28;;;;;;;3.30;1.70;;;;;;;-145.18;100.00;149047.94;5044574;28;20063;-68
2022/12/28 11:30:55;;;;;;;3.90;2.00;;;;;;;6.33;100.00;149047.94;5045358;28;20483;-68
2022/12/28 11:33:32;;;;;;;3.63;1.80;;;;;;;6.33;100.00;149047.94;5048030;28;20484;-68
2022/12/28 11:35:59;;;;;;;4.27;1.80;;;;;;;-145.18;100.00;114074.00;5041888;28;20392;-68
2022/12/28 11:38:39;;;;;;;3.23;1.90;;;;;;;6.33;100.00;149047.94;5046916;28;20025;-68
2022/12/28 11:41:29;;;;;;;4.13;2.03;;;;;;;6.33;100.00;149047.94;5048340;28;20087;-68
2022/12/28 11:44:05;;;;;;;4.23;2.23;;;;;;;6.33;100.00;149047.94;5051943;28;20028;-68
2022/12/28 11:46:30;;;;;;;3.90;2.30;;;;;;;6.33;100.00;149047.94;5048820;28;20025;-68
2022/12/28 11:48:58;;;;;;;5.07;2.53;;;;;;;6.33;100.00;149047.94;5053229;28;20033;-68
2022/12/28 11:51:35;;;;;;;4.80;2.10;;;;;;;6.33;100.00;149047.94;5053480;28;20412;-68
2022/12/28 11:54:06;;;;;;;3.80;2.10;;;;;;;6.33;100.00;149047.94;5054525;28;20029;-68
2022/12/28 11:56:40;;;;;;;4.43;1.83;;;;;;;6.33;100.00;149047.94;5052721;28;20029;-68